sensor_id;sensor_type;location;lat;lon;timestamp;temperature;humidity
18252;DHT22;26917;52.328;20.878;2023-04-03T00:00:16;1.00;99.90
18252;DHT22;26917;52.328;20.878;2023-04-03T00:02:56;1.00;99.90
18252;DHT22;26917;52.328;20.878;2023-04-03T00:05:38;1.10;99.90
18252;DHT22;26917;52.328;20.878;2023-04-03T00:08:08;0.90;99.90
18252;DHT22;26917;52.328;20.878;2023-04-03T00:10:58;1.00;99.90
18252;DHT22;26917;52.328;20.878;2023-04-03T00:13:31;1.00;99.90
18252;DHT22;26917;52.328;20.878;2023-04-03T00:16:25;0.80;99.90
18252;DHT22;26917;52.328;20.878;2023-04-03T00:18:54;0.80;99.90
18252;DHT22;26917;52.328;20.878;2023-04-03T00:21:22;0.80;99.90
18252;DHT22;26917;52.328;20.878;2023-04-03T00:23:58;0.80;99.90
18252;DHT22;26917;52.328;20.878;2023-04-03T00:26:28;0.80;99.90
18252;DHT22;26917;52.328;20.878;2023-04-03T00:29:44;1.00;99.90
18252;DHT22;26917;52.328;20.878;2023-04-03T00:32:13;0.70;99.90
18252;DHT22;26917;52.328;20.878;2023-04-03T00:34:51;1.20;99.90
18252;DHT22;26917;52.328;20.878;2023-04-03T00:37:20;0.40;99.90
18252;DHT22;26917;52.328;20.878;2023-04-03T00:39:51;0.60;99.90
18252;DHT22;26917;52.328;20.878;2023-04-03T00:42:50;1.10;99.90
18252;DHT22;26917;52.328;20.878;2023-04-03T00:45:34;0.50;99.90
18252;DHT22;26917;52.328;20.878;2023-04-03T00:48:05;0.50;99.90
18252;DHT22;26917;52.328;20.878;2023-04-03T00:50:44;1.10;99.90
18252;DHT22;26917;52.328;20.878;2023-04-03T00:53:23;0.40;99.90
18252;DHT22;26917;52.328;20.878;2023-04-03T00:56:31;0.70;99.90
18252;DHT22;26917;52.328;20.878;2023-04-03T00:59:06;0.40;99.90
18252;DHT22;26917;52.328;20.878;2023-04-03T01:01:53;0.40;99.90
18252;DHT22;26917;52.328;20.878;2023-04-03T01:04:30;0.30;99.90
18252;DHT22;26917;52.328;20.878;2023-04-03T01:07:05;0.30;99.90
18252;DHT22;26917;52.328;20.878;2023-04-03T01:09:36;0.20;99.90
18252;DHT22;26917;52.328;20.878;2023-04-03T01:12:18;0.60;99.90
18252;DHT22;26917;52.328;20.878;2023-04-03T01:14:50;1.00;99.90
18252;DHT22;26917;52.328;20.878;2023-04-03T01:17:27;1.10;99.90
18252;DHT22;26917;52.328;20.878;2023-04-03T01:22:59;0.10;99.90
18252;DHT22;26917;52.328;20.878;2023-04-03T01:25:30;0.30;99.90
18252;DHT22;26917;52.328;20.878;2023-04-03T01:28:00;0.30;99.90
18252;DHT22;26917;52.328;20.878;2023-04-03T01:30:32;0.00;99.90
18252;DHT22;26917;52.328;20.878;2023-04-03T01:33:03;0.00;99.90
18252;DHT22;26917;52.328;20.878;2023-04-03T01:35:32;0.10;99.90
18252;DHT22;26917;52.328;20.878;2023-04-03T01:38:00;-0.10;99.90
18252;DHT22;26917;52.328;20.878;2023-04-03T01:40:28;-0.10;99.90
18252;DHT22;26917;52.328;20.878;2023-04-03T01:42:57;-0.10;99.90
18252;DHT22;26917;52.328;20.878;2023-04-03T01:45:25;0.00;99.90
18252;DHT22;26917;52.328;20.878;2023-04-03T01:47:54;-0.10;99.90
18252;DHT22;26917;52.328;20.878;2023-04-03T01:50:26;0.20;99.90
18252;DHT22;26917;52.328;20.878;2023-04-03T01:52:54;-0.10;99.90
18252;DHT22;26917;52.328;20.878;2023-04-03T01:55:22;-0.10;99.90
18252;DHT22;26917;52.328;20.878;2023-04-03T01:57:51;-0.20;99.90
18252;DHT22;26917;52.328;20.878;2023-04-03T02:00:19;-0.20;99.90
18252;DHT22;26917;52.328;20.878;2023-04-03T02:02:49;-0.20;99.90
18252;DHT22;26917;52.328;20.878;2023-04-03T02:05:18;-0.20;99.90
18252;DHT22;26917;52.328;20.878;2023-04-03T02:07:47;-0.30;99.90
18252;DHT22;26917;52.328;20.878;2023-04-03T02:10:16;-0.20;99.90
18252;DHT22;26917;52.328;20.878;2023-04-03T02:12:45;-0.30;99.90
18252;DHT22;26917;52.328;20.878;2023-04-03T02:15:14;-0.20;99.90
18252;DHT22;26917;52.328;20.878;2023-04-03T02:17:43;-0.30;99.90
18252;DHT22;26917;52.328;20.878;2023-04-03T02:20:13;-0.20;99.90
18252;DHT22;26917;52.328;20.878;2023-04-03T02:22:42;-0.30;99.90
18252;DHT22;26917;52.328;20.878;2023-04-03T02:25:15;-0.70;99.90
18252;DHT22;26917;52.328;20.878;2023-04-03T02:27:50;-0.80;99.90
18252;DHT22;26917;52.328;20.878;2023-04-03T02:30:19;-0.40;99.90
18252;DHT22;26917;52.328;20.878;2023-04-03T02:32:49;-0.40;99.90
18252;DHT22;26917;52.328;20.878;2023-04-03T02:35:19;-0.40;99.90
18252;DHT22;26917;52.328;20.878;2023-04-03T02:37:48;-0.40;99.90
18252;DHT22;26917;52.328;20.878;2023-04-03T02:40:19;-0.40;99.90
18252;DHT22;26917;52.328;20.878;2023-04-03T02:42:53;0.10;99.90
18252;DHT22;26917;52.328;20.878;2023-04-03T02:45:23;-0.40;99.90
18252;DHT22;26917;52.328;20.878;2023-04-03T02:47:56;-0.40;99.90
18252;DHT22;26917;52.328;20.878;2023-04-03T02:50:29;-0.50;99.90
18252;DHT22;26917;52.328;20.878;2023-04-03T02:52:59;-0.60;99.90
18252;DHT22;26917;52.328;20.878;2023-04-03T02:55:36;-0.60;99.90
18252;DHT22;26917;52.328;20.878;2023-04-03T02:58:27;-0.50;99.90
18252;DHT22;26917;52.328;20.878;2023-04-03T03:00:57;-0.50;99.90
18252;DHT22;26917;52.328;20.878;2023-04-03T03:03:29;-0.50;99.90
18252;DHT22;26917;52.328;20.878;2023-04-03T03:06:03;-0.60;99.90
18252;DHT22;26917;52.328;20.878;2023-04-03T03:08:36;-0.60;99.90
18252;DHT22;26917;52.328;20.878;2023-04-03T03:11:09;-0.60;99.90
18252;DHT22;26917;52.328;20.878;2023-04-03T03:13:39;-0.70;99.90
18252;DHT22;26917;52.328;20.878;2023-04-03T03:19:13;-0.70;99.90
18252;DHT22;26917;52.328;20.878;2023-04-03T03:22:05;-0.70;99.90
18252;DHT22;26917;52.328;20.878;2023-04-03T03:24:47;-0.80;99.90
18252;DHT22;26917;52.328;20.878;2023-04-03T03:27:19;-0.80;99.90
18252;DHT22;26917;52.328;20.878;2023-04-03T03:29:50;-0.90;99.90
18252;DHT22;26917;52.328;20.878;2023-04-03T03:32:21;-0.90;99.90
18252;DHT22;26917;52.328;20.878;2023-04-03T03:34:55;-1.00;99.90
18252;DHT22;26917;52.328;20.878;2023-04-03T03:37:25;-0.90;99.90
18252;DHT22;26917;52.328;20.878;2023-04-03T03:40:01;-1.00;99.90
18252;DHT22;26917;52.328;20.878;2023-04-03T03:42:39;-1.10;99.90
18252;DHT22;26917;52.328;20.878;2023-04-03T03:45:11;-1.00;99.90
18252;DHT22;26917;52.328;20.878;2023-04-03T03:47:41;-1.00;99.90
18252;DHT22;26917;52.328;20.878;2023-04-03T03:50:11;-1.00;99.90
18252;DHT22;26917;52.328;20.878;2023-04-03T03:52:40;-1.10;99.90
18252;DHT22;26917;52.328;20.878;2023-04-03T03:55:19;-1.10;99.90
18252;DHT22;26917;52.328;20.878;2023-04-03T03:58:08;-0.90;99.90
18252;DHT22;26917;52.328;20.878;2023-04-03T04:00:41;-0.90;99.90
18252;DHT22;26917;52.328;20.878;2023-04-03T04:03:10;-1.10;99.90
18252;DHT22;26917;52.328;20.878;2023-04-03T04:05:40;-1.10;99.90
18252;DHT22;26917;52.328;20.878;2023-04-03T04:08:09;-0.80;99.90
18252;DHT22;26917;52.328;20.878;2023-04-03T04:10:38;-1.10;99.90
18252;DHT22;26917;52.328;20.878;2023-04-03T04:13:26;-1.10;99.90
18252;DHT22;26917;52.328;20.878;2023-04-03T04:15:58;-1.00;99.90
18252;DHT22;26917;52.328;20.878;2023-04-03T04:18:35;-1.10;99.90
18252;DHT22;26917;52.328;20.878;2023-04-03T04:21:03;-1.00;99.90
18252;DHT22;26917;52.328;20.878;2023-04-03T04:26:27;-1.00;99.90
18252;DHT22;26917;52.328;20.878;2023-04-03T04:28:57;-0.90;99.90
18252;DHT22;26917;52.328;20.878;2023-04-03T04:31:27;-0.70;99.90
18252;DHT22;26917;52.328;20.878;2023-04-03T04:33:56;-0.90;99.90
18252;DHT22;26917;52.328;20.878;2023-04-03T04:36:25;-0.60;99.90
18252;DHT22;26917;52.328;20.878;2023-04-03T04:39:00;-0.80;99.90
18252;DHT22;26917;52.328;20.878;2023-04-03T04:41:30;-0.60;99.90
18252;DHT22;26917;52.328;20.878;2023-04-03T04:44:08;-1.00;99.90
18252;DHT22;26917;52.328;20.878;2023-04-03T04:46:37;-0.40;99.90
18252;DHT22;26917;52.328;20.878;2023-04-03T04:49:08;-0.70;99.90
18252;DHT22;26917;52.328;20.878;2023-04-03T04:51:37;-0.60;99.90
18252;DHT22;26917;52.328;20.878;2023-04-03T04:54:30;-0.60;99.90
18252;DHT22;26917;52.328;20.878;2023-04-03T04:57:04;-0.30;99.90
18252;DHT22;26917;52.328;20.878;2023-04-03T04:59:35;0.10;99.90
18252;DHT22;26917;52.328;20.878;2023-04-03T05:02:10;-0.50;99.90
18252;DHT22;26917;52.328;20.878;2023-04-03T05:04:41;-0.50;99.90
18252;DHT22;26917;52.328;20.878;2023-04-03T05:07:16;-0.40;99.90
18252;DHT22;26917;52.328;20.878;2023-04-03T05:09:50;-0.40;99.90
18252;DHT22;26917;52.328;20.878;2023-04-03T05:12:20;-0.30;99.90
18252;DHT22;26917;52.328;20.878;2023-04-03T05:14:58;0.00;99.90
18252;DHT22;26917;52.328;20.878;2023-04-03T05:17:29;-0.20;99.90
18252;DHT22;26917;52.328;20.878;2023-04-03T05:20:02;-0.20;99.90
18252;DHT22;26917;52.328;20.878;2023-04-03T05:22:37;-0.20;99.90
18252;DHT22;26917;52.328;20.878;2023-04-03T05:25:10;0.00;99.90
18252;DHT22;26917;52.328;20.878;2023-04-03T05:27:55;-0.10;99.90
18252;DHT22;26917;52.328;20.878;2023-04-03T05:30:25;0.00;99.90
18252;DHT22;26917;52.328;20.878;2023-04-03T05:33:06;0.00;99.90
18252;DHT22;26917;52.328;20.878;2023-04-03T05:35:41;-0.10;99.90
18252;DHT22;26917;52.328;20.878;2023-04-03T05:38:17;0.00;99.90
18252;DHT22;26917;52.328;20.878;2023-04-03T05:40:46;0.20;99.90
18252;DHT22;26917;52.328;20.878;2023-04-03T05:43:21;0.50;99.90
18252;DHT22;26917;52.328;20.878;2023-04-03T05:45:52;0.10;99.90
18252;DHT22;26917;52.328;20.878;2023-04-03T05:48:23;0.20;99.90
18252;DHT22;26917;52.328;20.878;2023-04-03T05:50:54;0.30;99.90
18252;DHT22;26917;52.328;20.878;2023-04-03T05:53:28;0.20;99.90
18252;DHT22;26917;52.328;20.878;2023-04-03T05:56:04;0.30;99.90
18252;DHT22;26917;52.328;20.878;2023-04-03T05:58:37;0.30;99.90
18252;DHT22;26917;52.328;20.878;2023-04-03T06:01:07;0.30;99.90
18252;DHT22;26917;52.328;20.878;2023-04-03T06:03:36;0.40;99.90
18252;DHT22;26917;52.328;20.878;2023-04-03T06:06:10;1.10;99.90
18252;DHT22;26917;52.328;20.878;2023-04-03T06:08:40;1.10;99.90
18252;DHT22;26917;52.328;20.878;2023-04-03T06:11:08;0.80;99.90
18252;DHT22;26917;52.328;20.878;2023-04-03T06:13:46;0.90;99.90
18252;DHT22;26917;52.328;20.878;2023-04-03T06:16:55;1.40;99.90
18252;DHT22;26917;52.328;20.878;2023-04-03T06:19:24;1.40;99.90
18252;DHT22;26917;52.328;20.878;2023-04-03T06:21:55;1.20;99.90
18252;DHT22;26917;52.328;20.878;2023-04-03T06:24:24;1.90;99.90
18252;DHT22;26917;52.328;20.878;2023-04-03T06:26:58;1.30;99.90
18252;DHT22;26917;52.328;20.878;2023-04-03T06:29:41;1.50;99.90
18252;DHT22;26917;52.328;20.878;2023-04-03T06:32:11;1.20;99.90
18252;DHT22;26917;52.328;20.878;2023-04-03T06:34:44;0.80;99.90
18252;DHT22;26917;52.328;20.878;2023-04-03T06:37:22;0.70;99.90
18252;DHT22;26917;52.328;20.878;2023-04-03T06:39:53;0.70;99.90
18252;DHT22;26917;52.328;20.878;2023-04-03T06:42:22;0.70;99.90
18252;DHT22;26917;52.328;20.878;2023-04-03T06:44:59;0.60;99.90
18252;DHT22;26917;52.328;20.878;2023-04-03T06:47:31;0.60;99.90
18252;DHT22;26917;52.328;20.878;2023-04-03T06:50:10;0.80;99.90
18252;DHT22;26917;52.328;20.878;2023-04-03T06:52:56;1.40;99.90
18252;DHT22;26917;52.328;20.878;2023-04-03T06:55:30;1.80;99.30
18252;DHT22;26917;52.328;20.878;2023-04-03T06:58:00;3.50;99.90
18252;DHT22;26917;52.328;20.878;2023-04-03T07:00:32;4.40;96.20
18252;DHT22;26917;52.328;20.878;2023-04-03T07:03:03;5.00;94.10
18252;DHT22;26917;52.328;20.878;2023-04-03T07:05:39;5.50;92.90
18252;DHT22;26917;52.328;20.878;2023-04-03T07:08:09;5.70;91.60
18252;DHT22;26917;52.328;20.878;2023-04-03T07:10:41;5.50;89.80
18252;DHT22;26917;52.328;20.878;2023-04-03T07:13:09;5.30;90.40
18252;DHT22;26917;52.328;20.878;2023-04-03T07:15:42;4.60;91.00
18252;DHT22;26917;52.328;20.878;2023-04-03T07:18:12;4.30;92.00
18252;DHT22;26917;52.328;20.878;2023-04-03T07:20:41;3.00;92.70
18252;DHT22;26917;52.328;20.878;2023-04-03T07:23:09;2.50;93.80
18252;DHT22;26917;52.328;20.878;2023-04-03T07:25:42;2.50;94.70
18252;DHT22;26917;52.328;20.878;2023-04-03T07:28:12;1.90;95.70
18252;DHT22;26917;52.328;20.878;2023-04-03T07:30:44;2.40;96.00
18252;DHT22;26917;52.328;20.878;2023-04-03T07:33:16;1.80;95.80
18252;DHT22;26917;52.328;20.878;2023-04-03T07:35:45;1.60;95.50
18252;DHT22;26917;52.328;20.878;2023-04-03T07:38:14;1.70;96.90
18252;DHT22;26917;52.328;20.878;2023-04-03T07:40:46;1.60;96.60
18252;DHT22;26917;52.328;20.878;2023-04-03T07:43:16;1.50;96.40
18252;DHT22;26917;52.328;20.878;2023-04-03T07:45:46;1.70;95.80
18252;DHT22;26917;52.328;20.878;2023-04-03T07:48:19;1.50;95.90
18252;DHT22;26917;52.328;20.878;2023-04-03T07:50:49;1.50;96.20
18252;DHT22;26917;52.328;20.878;2023-04-03T07:53:18;1.60;96.20
18252;DHT22;26917;52.328;20.878;2023-04-03T07:55:47;1.60;96.30
18252;DHT22;26917;52.328;20.878;2023-04-03T07:58:17;1.90;95.60
18252;DHT22;26917;52.328;20.878;2023-04-03T08:00:46;2.40;95.60
18252;DHT22;26917;52.328;20.878;2023-04-03T08:03:15;1.80;94.90
18252;DHT22;26917;52.328;20.878;2023-04-03T08:05:47;1.90;95.50
18252;DHT22;26917;52.328;20.878;2023-04-03T08:08:18;2.00;95.70
18252;DHT22;26917;52.328;20.878;2023-04-03T08:10:50;1.90;95.40
18252;DHT22;26917;52.328;20.878;2023-04-03T08:13:19;2.10;94.90
18252;DHT22;26917;52.328;20.878;2023-04-03T08:15:47;2.30;94.50
18252;DHT22;26917;52.328;20.878;2023-04-03T08:18:16;2.80;95.20
18252;DHT22;26917;52.328;20.878;2023-04-03T08:20:46;3.90;92.70
18252;DHT22;26917;52.328;20.878;2023-04-03T08:23:18;5.00;91.10
18252;DHT22;26917;52.328;20.878;2023-04-03T08:25:48;5.80;88.80
18252;DHT22;26917;52.328;20.878;2023-04-03T08:28:20;5.80;87.00
18252;DHT22;26917;52.328;20.878;2023-04-03T08:30:48;5.20;89.70
18252;DHT22;26917;52.328;20.878;2023-04-03T08:33:17;4.60;90.40
18252;DHT22;26917;52.328;20.878;2023-04-03T08:35:47;4.10;88.80
18252;DHT22;26917;52.328;20.878;2023-04-03T08:38:16;4.10;89.20
18252;DHT22;26917;52.328;20.878;2023-04-03T08:40:44;3.80;85.60
18252;DHT22;26917;52.328;20.878;2023-04-03T08:43:27;4.10;90.90
18252;DHT22;26917;52.328;20.878;2023-04-03T08:46:01;4.50;88.70
18252;DHT22;26917;52.328;20.878;2023-04-03T08:48:35;5.20;88.20
18252;DHT22;26917;52.328;20.878;2023-04-03T08:51:11;5.60;87.40
18252;DHT22;26917;52.328;20.878;2023-04-03T08:53:45;6.40;83.60
18252;DHT22;26917;52.328;20.878;2023-04-03T08:56:16;6.10;83.30
18252;DHT22;26917;52.328;20.878;2023-04-03T08:58:50;7.10;82.20
18252;DHT22;26917;52.328;20.878;2023-04-03T09:01:26;7.80;76.60
18252;DHT22;26917;52.328;20.878;2023-04-03T09:03:56;7.50;75.60
18252;DHT22;26917;52.328;20.878;2023-04-03T09:06:31;7.60;79.10
18252;DHT22;26917;52.328;20.878;2023-04-03T09:09:07;8.40;75.80
18252;DHT22;26917;52.328;20.878;2023-04-03T09:11:47;9.00;73.80
18252;DHT22;26917;52.328;20.878;2023-04-03T09:14:24;9.10;73.10
18252;DHT22;26917;52.328;20.878;2023-04-03T09:16:59;8.80;71.50
18252;DHT22;26917;52.328;20.878;2023-04-03T09:19:45;7.80;72.10
18252;DHT22;26917;52.328;20.878;2023-04-03T09:22:36;6.50;73.60
18252;DHT22;26917;52.328;20.878;2023-04-03T09:25:37;5.70;77.00
18252;DHT22;26917;52.328;20.878;2023-04-03T09:31:36;4.70;75.30
18252;DHT22;26917;52.328;20.878;2023-04-03T09:34:18;4.50;82.30
18252;DHT22;26917;52.328;20.878;2023-04-03T09:37:00;4.70;80.00
18252;DHT22;26917;52.328;20.878;2023-04-03T09:42:59;4.80;76.60
18252;DHT22;26917;52.328;20.878;2023-04-03T09:46:31;4.60;79.00
18252;DHT22;26917;52.328;20.878;2023-04-03T09:49:01;4.30;80.60
18252;DHT22;26917;52.328;20.878;2023-04-03T09:51:36;4.30;81.90
18252;DHT22;26917;52.328;20.878;2023-04-03T09:54:30;4.10;81.20
18252;DHT22;26917;52.328;20.878;2023-04-03T09:57:05;4.10;82.70
18252;DHT22;26917;52.328;20.878;2023-04-03T09:59:44;4.40;82.20
18252;DHT22;26917;52.328;20.878;2023-04-03T10:02:32;4.50;81.10
18252;DHT22;26917;52.328;20.878;2023-04-03T10:05:03;4.60;78.50
18252;DHT22;26917;52.328;20.878;2023-04-03T10:07:37;4.70;79.40
18252;DHT22;26917;52.328;20.878;2023-04-03T10:10:18;4.70;77.70
18252;DHT22;26917;52.328;20.878;2023-04-03T10:12:47;4.60;78.10
18252;DHT22;26917;52.328;20.878;2023-04-03T10:15:19;4.60;79.30
18252;DHT22;26917;52.328;20.878;2023-04-03T10:17:57;4.60;82.60
18252;DHT22;26917;52.328;20.878;2023-04-03T10:21:02;4.50;80.60
18252;DHT22;26917;52.328;20.878;2023-04-03T10:23:59;4.50;78.10
18252;DHT22;26917;52.328;20.878;2023-04-03T10:26:48;4.70;80.30
18252;DHT22;26917;52.328;20.878;2023-04-03T10:32:51;4.90;77.70
18252;DHT22;26917;52.328;20.878;2023-04-03T10:36:01;4.60;79.30
18252;DHT22;26917;52.328;20.878;2023-04-03T10:38:55;4.60;81.40
18252;DHT22;26917;52.328;20.878;2023-04-03T10:41:41;4.90;80.00
18252;DHT22;26917;52.328;20.878;2023-04-03T10:44:42;5.30;76.60
18252;DHT22;26917;52.328;20.878;2023-04-03T10:47:18;5.60;74.20
18252;DHT22;26917;52.328;20.878;2023-04-03T10:49:58;5.80;78.80
18252;DHT22;26917;52.328;20.878;2023-04-03T10:52:41;5.80;75.90
18252;DHT22;26917;52.328;20.878;2023-04-03T10:55:28;5.70;73.80
18252;DHT22;26917;52.328;20.878;2023-04-03T10:58:04;5.50;72.80
18252;DHT22;26917;52.328;20.878;2023-04-03T11:00:37;5.50;74.70
18252;DHT22;26917;52.328;20.878;2023-04-03T11:03:12;5.70;76.00
18252;DHT22;26917;52.328;20.878;2023-04-03T11:05:49;5.70;78.30
18252;DHT22;26917;52.328;20.878;2023-04-03T11:08:27;5.50;75.60
18252;DHT22;26917;52.328;20.878;2023-04-03T11:11:00;5.70;72.60
18252;DHT22;26917;52.328;20.878;2023-04-03T11:13:43;6.00;72.20
18252;DHT22;26917;52.328;20.878;2023-04-03T11:16:15;6.10;72.60
18252;DHT22;26917;52.328;20.878;2023-04-03T11:18:56;6.00;71.80
18252;DHT22;26917;52.328;20.878;2023-04-03T11:21:39;5.90;72.90
18252;DHT22;26917;52.328;20.878;2023-04-03T11:24:16;5.90;73.20
18252;DHT22;26917;52.328;20.878;2023-04-03T11:26:46;5.80;71.10
18252;DHT22;26917;52.328;20.878;2023-04-03T11:29:20;5.70;71.20
18252;DHT22;26917;52.328;20.878;2023-04-03T11:32:11;5.40;74.60
18252;DHT22;26917;52.328;20.878;2023-04-03T11:34:47;5.80;77.20
18252;DHT22;26917;52.328;20.878;2023-04-03T11:37:40;5.80;74.50
18252;DHT22;26917;52.328;20.878;2023-04-03T11:40:21;5.90;77.30
18252;DHT22;26917;52.328;20.878;2023-04-03T11:42:55;5.90;76.30
18252;DHT22;26917;52.328;20.878;2023-04-03T11:46:30;5.80;73.70
18252;DHT22;26917;52.328;20.878;2023-04-03T11:53:34;5.70;76.60
18252;DHT22;26917;52.328;20.878;2023-04-03T11:56:29;5.40;73.80
18252;DHT22;26917;52.328;20.878;2023-04-03T11:59:35;5.30;72.00
18252;DHT22;26917;52.328;20.878;2023-04-03T12:02:36;5.70;74.00
18252;DHT22;26917;52.328;20.878;2023-04-03T12:05:30;5.70;76.00
18252;DHT22;26917;52.328;20.878;2023-04-03T12:08:55;5.90;75.60
18252;DHT22;26917;52.328;20.878;2023-04-03T12:16:03;6.10;70.60
18252;DHT22;26917;52.328;20.878;2023-04-03T12:18:44;6.10;69.70
18252;DHT22;26917;52.328;20.878;2023-04-03T12:21:15;6.30;72.00
18252;DHT22;26917;52.328;20.878;2023-04-03T12:24:05;6.50;73.00
18252;DHT22;26917;52.328;20.878;2023-04-03T12:27:04;6.60;70.80
18252;DHT22;26917;52.328;20.878;2023-04-03T12:29:46;6.70;72.70
18252;DHT22;26917;52.328;20.878;2023-04-03T12:32:25;6.70;69.60
18252;DHT22;26917;52.328;20.878;2023-04-03T12:35:20;6.60;68.50
18252;DHT22;26917;52.328;20.878;2023-04-03T12:41:21;6.40;68.60
18252;DHT22;26917;52.328;20.878;2023-04-03T12:44:26;6.30;66.40
18252;DHT22;26917;52.328;20.878;2023-04-03T12:47:16;6.50;68.20
18252;DHT22;26917;52.328;20.878;2023-04-03T12:50:48;6.60;70.30
18252;DHT22;26917;52.328;20.878;2023-04-03T12:54:50;6.40;70.20
18252;DHT22;26917;52.328;20.878;2023-04-03T13:01:36;6.80;69.30
18252;DHT22;26917;52.328;20.878;2023-04-03T13:04:46;6.40;68.60
18252;DHT22;26917;52.328;20.878;2023-04-03T13:07:23;6.30;70.90
18252;DHT22;26917;52.328;20.878;2023-04-03T13:09:59;6.30;72.00
18252;DHT22;26917;52.328;20.878;2023-04-03T13:12:47;6.20;71.40
18252;DHT22;26917;52.328;20.878;2023-04-03T13:15:26;6.10;69.60
18252;DHT22;26917;52.328;20.878;2023-04-03T13:18:22;6.00;71.30
18252;DHT22;26917;52.328;20.878;2023-04-03T13:20:58;5.90;68.60
18252;DHT22;26917;52.328;20.878;2023-04-03T13:23:29;5.90;70.30
18252;DHT22;26917;52.328;20.878;2023-04-03T13:26:15;6.00;68.30
18252;DHT22;26917;52.328;20.878;2023-04-03T13:32:34;6.20;71.70
18252;DHT22;26917;52.328;20.878;2023-04-03T13:43:16;6.10;70.10
18252;DHT22;26917;52.328;20.878;2023-04-03T13:46:20;6.30;72.30
18252;DHT22;26917;52.328;20.878;2023-04-03T13:49:40;6.30;69.90
18252;DHT22;26917;52.328;20.878;2023-04-03T13:52:42;6.20;67.90
18252;DHT22;26917;52.328;20.878;2023-04-03T13:55:55;6.20;71.20
18252;DHT22;26917;52.328;20.878;2023-04-03T13:58:26;6.10;68.00
18252;DHT22;26917;52.328;20.878;2023-04-03T14:01:00;6.20;68.60
18252;DHT22;26917;52.328;20.878;2023-04-03T14:03:56;6.10;68.20
18252;DHT22;26917;52.328;20.878;2023-04-03T14:06:25;6.30;71.20
18252;DHT22;26917;52.328;20.878;2023-04-03T14:08:53;6.20;67.50
18252;DHT22;26917;52.328;20.878;2023-04-03T14:11:24;6.20;70.70
18252;DHT22;26917;52.328;20.878;2023-04-03T14:14:02;6.30;72.90
18252;DHT22;26917;52.328;20.878;2023-04-03T14:16:35;6.20;73.30
18252;DHT22;26917;52.328;20.878;2023-04-03T14:19:06;6.10;72.40
18252;DHT22;26917;52.328;20.878;2023-04-03T14:21:34;6.00;69.00
18252;DHT22;26917;52.328;20.878;2023-04-03T14:24:06;6.00;73.10
18252;DHT22;26917;52.328;20.878;2023-04-03T14:26:38;5.80;71.60
18252;DHT22;26917;52.328;20.878;2023-04-03T14:29:13;5.70;72.30
18252;DHT22;26917;52.328;20.878;2023-04-03T14:31:43;5.70;73.00
18252;DHT22;26917;52.328;20.878;2023-04-03T14:34:13;5.80;73.40
18252;DHT22;26917;52.328;20.878;2023-04-03T14:36:43;5.90;73.10
18252;DHT22;26917;52.328;20.878;2023-04-03T14:39:17;6.10;72.70
18252;DHT22;26917;52.328;20.878;2023-04-03T14:42:21;6.10;70.60
18252;DHT22;26917;52.328;20.878;2023-04-03T14:44:58;6.20;71.90
18252;DHT22;26917;52.328;20.878;2023-04-03T14:47:29;5.90;71.70
18252;DHT22;26917;52.328;20.878;2023-04-03T14:50:07;6.00;72.70
18252;DHT22;26917;52.328;20.878;2023-04-03T14:52:36;5.90;71.90
18252;DHT22;26917;52.328;20.878;2023-04-03T14:55:19;5.80;71.10
18252;DHT22;26917;52.328;20.878;2023-04-03T14:57:48;5.90;72.50
18252;DHT22;26917;52.328;20.878;2023-04-03T15:00:20;6.00;72.00
18252;DHT22;26917;52.328;20.878;2023-04-03T15:02:56;6.10;74.90
18252;DHT22;26917;52.328;20.878;2023-04-03T15:05:50;6.00;73.80
18252;DHT22;26917;52.328;20.878;2023-04-03T15:11:10;5.70;75.00
18252;DHT22;26917;52.328;20.878;2023-04-03T15:14:30;5.40;73.50
18252;DHT22;26917;52.328;20.878;2023-04-03T15:17:34;5.40;72.10
18252;DHT22;26917;52.328;20.878;2023-04-03T15:20:48;5.20;74.00
18252;DHT22;26917;52.328;20.878;2023-04-03T15:23:53;5.20;75.60
18252;DHT22;26917;52.328;20.878;2023-04-03T15:26:52;5.00;76.90
18252;DHT22;26917;52.328;20.878;2023-04-03T15:31:14;5.40;74.50
18252;DHT22;26917;52.328;20.878;2023-04-03T15:34:23;5.40;76.90
18252;DHT22;26917;52.328;20.878;2023-04-03T15:38:02;5.30;75.40
18252;DHT22;26917;52.328;20.878;2023-04-03T15:41:07;5.20;73.90
18252;DHT22;26917;52.328;20.878;2023-04-03T15:43:56;5.20;75.90
18252;DHT22;26917;52.328;20.878;2023-04-03T15:46:49;5.20;76.90
18252;DHT22;26917;52.328;20.878;2023-04-03T15:49:19;5.40;75.80
18252;DHT22;26917;52.328;20.878;2023-04-03T15:52:06;5.10;76.60
18252;DHT22;26917;52.328;20.878;2023-04-03T15:54:35;5.10;77.10
18252;DHT22;26917;52.328;20.878;2023-04-03T15:57:04;5.20;78.30
18252;DHT22;26917;52.328;20.878;2023-04-03T15:59:33;5.00;78.20
18252;DHT22;26917;52.328;20.878;2023-04-03T16:02:01;5.10;79.60
18252;DHT22;26917;52.328;20.878;2023-04-03T16:04:32;4.90;79.60
18252;DHT22;26917;52.328;20.878;2023-04-03T16:07:01;4.90;80.20
18252;DHT22;26917;52.328;20.878;2023-04-03T16:09:46;4.90;79.40
18252;DHT22;26917;52.328;20.878;2023-04-03T16:12:14;4.80;78.20
18252;DHT22;26917;52.328;20.878;2023-04-03T16:14:45;4.70;76.60
18252;DHT22;26917;52.328;20.878;2023-04-03T16:17:13;4.60;80.50
18252;DHT22;26917;52.328;20.878;2023-04-03T16:19:44;4.60;77.60
18252;DHT22;26917;52.328;20.878;2023-04-03T16:22:13;4.60;80.00
18252;DHT22;26917;52.328;20.878;2023-04-03T16:24:41;4.60;81.10
18252;DHT22;26917;52.328;20.878;2023-04-03T16:27:17;4.50;81.10
18252;DHT22;26917;52.328;20.878;2023-04-03T16:29:49;4.90;81.30
18252;DHT22;26917;52.328;20.878;2023-04-03T16:32:17;4.40;78.60
18252;DHT22;26917;52.328;20.878;2023-04-03T16:34:46;4.60;79.70
18252;DHT22;26917;52.328;20.878;2023-04-03T16:37:16;4.40;79.50
18252;DHT22;26917;52.328;20.878;2023-04-03T16:39:45;4.40;80.90
18252;DHT22;26917;52.328;20.878;2023-04-03T16:42:14;4.30;80.50
18252;DHT22;26917;52.328;20.878;2023-04-03T16:44:44;4.30;79.20
18252;DHT22;26917;52.328;20.878;2023-04-03T16:47:13;4.20;78.20
18252;DHT22;26917;52.328;20.878;2023-04-03T16:49:44;4.20;80.40
18252;DHT22;26917;52.328;20.878;2023-04-03T16:52:13;4.20;79.30
18252;DHT22;26917;52.328;20.878;2023-04-03T16:54:42;4.20;79.90
18252;DHT22;26917;52.328;20.878;2023-04-03T16:57:15;4.20;79.60
18252;DHT22;26917;52.328;20.878;2023-04-03T16:59:45;4.60;81.90
18252;DHT22;26917;52.328;20.878;2023-04-03T17:02:13;4.40;82.20
18252;DHT22;26917;52.328;20.878;2023-04-03T17:04:44;4.30;76.70
18252;DHT22;26917;52.328;20.878;2023-04-03T17:10:02;3.80;82.00
18252;DHT22;26917;52.328;20.878;2023-04-03T17:12:44;3.90;80.80
18252;DHT22;26917;52.328;20.878;2023-04-03T17:15:14;3.90;78.90
18252;DHT22;26917;52.328;20.878;2023-04-03T17:17:43;3.80;81.50
18252;DHT22;26917;52.328;20.878;2023-04-03T17:20:16;4.00;81.80
18252;DHT22;26917;52.328;20.878;2023-04-03T17:22:46;3.60;81.80
18252;DHT22;26917;52.328;20.878;2023-04-03T17:25:15;3.70;83.30